Time;durP1;ratioP1;P1;durP2;ratioP2;P2;SDS_P1;SDS_P2;PMS_P1;PMS_P2;Temp;Humidity;BMP_temperature;BMP_pressure;BME280_temperature;BME280_humidity;BME280_pressure;Samples;Min_cycle;Max_cycle;Signal;HPM_P1;HPM_P2
2020/12/25 00:00:55;;;;;;;7.20;4.00;;;;;;;3.81;100.00;101144.66;10131883;29;20052;-73
2020/12/25 00:06:09;;;;;;;10.57;5.78;;;;;;;3.73;100.00;101149.94;10136480;29;20100;-73
2020/12/25 00:11:10;;;;;;;11.80;4.45;;;;;;;3.85;100.00;101161.97;10135459;29;20048;-73
2020/12/25 00:16:15;;;;;;;9.90;5.32;;;;;;;3.80;100.00;101174.19;10135723;29;20140;-73
2020/12/25 00:21:17;;;;;;;10.52;5.35;;;;;;;3.81;100.00;101173.31;10135170;29;20048;-73
2020/12/25 00:26:29;;;;;;;10.32;5.43;;;;;;;3.80;100.00;101182.00;10135070;29;20078;-73
2020/12/25 00:31:38;;;;;;;13.82;5.03;;;;;;;3.76;100.00;101182.94;10117736;29;20063;-73
2020/12/25 00:36:41;;;;;;;8.82;4.93;;;;;;;3.76;100.00;101189.00;10118235;29;20504;-73
2020/12/25 00:41:44;;;;;;;12.65;5.45;;;;;;;3.78;100.00;101199.38;10133932;29;20627;-73
2020/12/25 00:46:46;;;;;;;9.75;5.40;;;;;;;3.70;100.00;101198.56;10117887;29;20059;-73
2020/12/25 00:51:48;;;;;;;13.57;5.63;;;;;;;3.72;100.00;101197.69;10117326;29;20108;-73
2020/12/25 00:56:52;;;;;;;10.02;5.45;;;;;;;3.72;100.00;101205.50;10118202;29;20077;-73
2020/12/25 01:02:01;;;;;;;10.15;5.68;;;;;;;3.69;100.00;101202.06;10118394;29;20052;-73
2020/12/25 01:07:06;;;;;;;8.70;5.53;;;;;;;3.64;100.00;101196.03;10134507;29;20044;-73
2020/12/25 01:12:07;;;;;;;15.02;6.53;;;;;;;3.61;100.00;101209.91;10117002;29;20053;-73
2020/12/25 01:17:08;;;;;;;12.95;5.97;;;;;;;3.56;100.00;101205.63;10134798;29;20504;-73
2020/12/25 01:22:09;;;;;;;12.35;6.75;;;;;;;3.53;100.00;101205.63;10135600;29;20378;-73
2020/12/25 01:27:12;;;;;;;11.93;7.43;;;;;;;3.55;100.00;101199.53;10133366;29;20054;-73
2020/12/25 01:32:13;;;;;;;14.30;6.95;;;;;;;3.61;100.00;101225.56;10133889;29;20394;-73
2020/12/25 01:37:14;;;;;;;8.98;6.18;;;;;;;3.64;100.00;101240.31;10113097;29;20103;-73
2020/12/25 01:42:15;;;;;;;10.82;6.07;;;;;;;3.62;100.00;101240.31;10116293;29;20052;-73
2020/12/25 01:47:17;;;;;;;8.23;6.15;;;;;;;3.56;100.00;101253.38;10136392;29;20044;-73
2020/12/25 01:52:18;;;;;;;9.85;5.40;;;;;;;3.43;100.00;101257.78;10137615;29;20052;-73
2020/12/25 01:57:22;;;;;;;8.90;5.22;;;;;;;3.33;100.00;101245.69;10108580;29;20045;-73
2020/12/25 02:02:24;;;;;;;9.05;4.30;;;;;;;3.41;100.00;101256.94;10109042;29;20040;-73
2020/12/25 02:07:26;;;;;;;9.57;4.60;;;;;;;3.44;100.00;101266.44;10112762;29;20512;-73
2020/12/25 02:12:27;;;;;;;11.27;4.70;;;;;;;3.39;100.00;101263.88;10138501;29;20437;-73
2020/12/25 02:17:28;;;;;;;9.05;4.30;;;;;;;3.29;100.00;101270.00;10136846;29;20044;-73
2020/12/25 02:22:30;;;;;;;12.88;4.60;;;;;;;3.20;100.00;101277.84;10137519;29;20054;-73
2020/12/25 02:27:31;;;;;;;8.32;3.78;;;;;;;3.16;100.00;101276.13;10138193;29;20047;-73
2020/12/25 02:32:36;;;;;;;9.57;4.30;;;;;;;3.18;100.00;101289.97;10137933;29;20413;-73
2020/12/25 02:37:47;;;;;;;10.53;4.20;;;;;;;3.14;100.00;101296.09;10137953;29;20401;-73
2020/12/25 02:42:48;;;;;;;8.73;3.88;;;;;;;3.14;100.00;101296.09;10137979;29;20289;-73
2020/12/25 02:47:49;;;;;;;9.10;4.15;;;;;;;2.99;100.00;101288.31;10137538;29;20060;-73
2020/12/25 02:52:51;;;;;;;9.27;4.38;;;;;;;2.94;100.00;101296.13;10136685;29;20405;-73
2020/12/25 02:57:52;;;;;;;10.63;3.88;;;;;;;2.88;100.00;101298.75;10137761;29;20402;-73
2020/12/25 03:02:53;;;;;;;10.68;4.30;;;;;;;2.89;100.00;101317.84;10137820;29;20045;-73
2020/12/25 03:08:06;;;;;;;8.48;3.47;;;;;;;2.87;100.00;101319.56;10136784;29;20450;-73
2020/12/25 03:13:08;;;;;;;10.77;3.67;;;;;;;2.84;100.00;101324.78;10137486;29;20049;-73
2020/12/25 03:18:09;;;;;;;9.90;4.07;;;;;;;2.78;100.00;101336.06;10135828;29;20104;-73
2020/12/25 03:23:11;;;;;;;8.65;3.42;;;;;;;2.68;100.00;101335.19;10136316;29;20053;-73
2020/12/25 03:28:12;;;;;;;8.13;3.38;;;;;;;2.74;100.00;101343.88;10135987;29;20049;-73
2020/12/25 03:33:13;;;;;;;7.38;3.92;;;;;;;2.82;100.00;101352.53;10135448;29;20555;-73
2020/12/25 03:38:29;;;;;;;9.10;3.55;;;;;;;2.82;100.00;101353.41;10135073;29;20136;-74
2020/12/25 03:43:31;;;;;;;10.57;3.47;;;;;;;2.74;100.00;101355.16;10135305;29;20059;-73
2020/12/25 03:48:32;;;;;;;9.68;3.40;;;;;;;2.49;100.00;101336.06;10135392;29;20052;-73
2020/12/25 03:53:33;;;;;;;8.48;3.10;;;;;;;2.37;100.00;101343.84;10135054;29;20520;-73
2020/12/25 03:58:34;;;;;;;9.10;4.47;;;;;;;2.12;100.00;101339.47;10135459;29;20398;-73
2020/12/25 04:03:35;;;;;;;7.57;3.00;;;;;;;2.11;100.00;101345.53;10134798;29;20374;-73
2020/12/25 04:08:44;;;;;;;12.52;3.42;;;;;;;1.95;100.00;101342.03;10132917;29;20051;-73
2020/12/25 04:13:47;;;;;;;9.20;3.67;;;;;;;1.93;100.00;101359.34;10133974;29;20049;-73
2020/12/25 04:18:48;;;;;;;7.53;2.65;;;;;;;1.74;100.00;101355.84;10133900;29;20493;-73
2020/12/25 04:23:49;;;;;;;9.82;2.80;;;;;;;1.63;100.00;101349.72;10134103;29;20052;-73
2020/12/25 04:28:50;;;;;;;9.80;3.17;;;;;;;1.72;100.00;101382.66;10151662;29;20044;-73
2020/12/25 04:33:52;;;;;;;12.82;2.55;;;;;;;1.52;100.00;101386.03;10132606;29;20048;-73
2020/12/25 04:39:05;;;;;;;8.13;2.60;;;;;;;1.29;100.00;101397.16;10132424;29;20076;-72
2020/12/25 04:44:07;;;;;;;11.65;2.92;;;;;;;1.25;100.00;101400.59;10133758;29;20064;-73
2020/12/25 04:49:08;;;;;;;12.90;3.40;;;;;;;1.16;100.00;101409.19;10133590;29;20044;-73
2020/12/25 04:54:10;;;;;;;6.72;2.90;;;;;;;1.07;100.00;101424.69;10133635;29;20060;-73
2020/12/25 04:59:11;;;;;;;10.32;2.75;;;;;;;0.94;100.00;101438.41;10135851;29;20093;-73
2020/12/25 05:04:19;;;;;;;11.98;3.00;;;;;;;0.80;100.00;101447.81;10134881;29;20045;-73
2020/12/25 05:09:25;;;;;;;8.65;3.35;;;;;;;0.88;100.00;101462.56;10134673;29;20052;-73
2020/12/25 05:14:28;;;;;;;7.55;3.00;;;;;;;0.83;100.00;101460.81;10134680;29;20044;-72
2020/12/25 05:19:31;;;;;;;25.17;3.95;;;;;;;0.83;100.00;101485.03;10142572;29;20054;-73
2020/12/25 05:24:39;;;;;;;10.73;3.63;;;;;;;0.70;100.00;101490.91;10142443;29;20055;-73
2020/12/25 05:29:41;;;;;;;9.02;3.33;;;;;;;0.58;100.00;101498.59;10142103;29;20415;-73
2020/12/25 05:34:44;;;;;;;12.77;3.42;;;;;;;0.38;100.00;101506.13;10132731;29;20049;-73
2020/12/25 05:39:47;;;;;;;8.55;3.50;;;;;;;0.48;100.00;101514.91;10123178;29;20072;-73
2020/12/25 05:44:48;;;;;;;11.95;3.47;;;;;;;0.45;100.00;101522.63;10139711;29;20453;-73
2020/12/25 05:49:49;;;;;;;11.35;2.85;;;;;;;0.33;100.00;101528.56;10136459;29;20512;-73
2020/12/25 05:54:52;;;;;;;8.38;3.08;;;;;;;0.37;100.00;101544.13;10135818;29;20131;-73
2020/12/25 05:59:56;;;;;;;8.50;3.38;;;;;;;0.33;100.00;101547.56;10138842;29;20044;-73
2020/12/25 06:04:57;;;;;;;11.55;3.40;;;;;;;0.48;100.00;101570.19;10139840;29;20367;-73
2020/12/25 06:10:03;;;;;;;14.15;3.90;;;;;;;0.58;100.00;101584.16;10136800;29;20123;-73
2020/12/25 06:15:08;;;;;;;10.70;3.70;;;;;;;0.68;100.00;101596.34;10139267;29;20557;-73
2020/12/25 06:20:13;;;;;;;12.50;3.95;;;;;;;0.77;100.00;101599.03;10138434;29;20056;-73
2020/12/25 06:25:15;;;;;;;7.88;3.55;;;;;;;0.91;100.00;101607.00;10127445;29;20044;-73
2020/12/25 06:30:24;;;;;;;10.20;4.22;;;;;;;0.88;100.00;101596.59;10137353;29;20482;-74
2020/12/25 06:35:47;;;;;;;12.93;4.00;;;;;;;0.73;100.00;101595.56;10138567;29;20056;-73
2020/12/25 06:40:48;;;;;;;9.63;2.95;;;;;;;0.67;100.00;101603.25;10137242;29;20104;-73
2020/12/25 06:46:07;;;;;;;10.32;3.53;;;;;;;0.58;100.00;101615.25;10137869;29;20040;-73
2020/12/25 06:51:10;;;;;;;8.05;3.88;;;;;;;0.46;100.00;101634.09;10137366;29;20048;-73
2020/12/25 06:56:19;;;;;;;10.85;3.42;;;;;;;0.59;100.00;101638.59;10137307;29;20104;-73
2020/12/25 07:01:35;;;;;;;13.80;3.45;;;;;;;0.92;100.00;101656.28;10137065;29;20109;-73
2020/12/25 07:06:36;;;;;;;9.98;3.10;;;;;;;1.03;100.00;101659.88;10136853;29;20060;-73
2020/12/25 07:11:38;;;;;;;9.75;3.78;;;;;;;1.11;100.00;101668.63;10135438;29;20052;-72
2020/12/25 07:16:40;;;;;;;9.75;3.33;;;;;;;1.08;100.00;101671.22;10136617;29;20087;-73
2020/12/25 07:21:42;;;;;;;10.45;3.15;;;;;;;1.25;100.00;101691.28;10136035;29;20052;-73
2020/12/25 07:26:46;;;;;;;13.23;3.10;;;;;;;1.32;100.00;101696.56;10135326;29;20057;-73
2020/12/25 07:31:48;;;;;;;9.35;4.22;;;;;;;1.48;100.00;101711.44;10136058;29;20751;-73
2020/12/25 07:36:55;;;;;;;10.30;3.35;;;;;;;1.57;100.00;101710.66;10135516;29;20504;-72
2020/12/25 07:41:59;;;;;;;9.98;3.45;;;;;;;1.65;100.00;101722.00;10134803;29;20052;-73
2020/12/25 07:47:00;;;;;;;15.57;4.60;;;;;;;1.72;100.00;101716.00;10136467;29;20520;-73
2020/12/25 07:52:02;;;;;;;14.93;4.22;;;;;;;1.79;100.00;101719.53;10129056;29;20046;-73
2020/12/25 07:57:05;;;;;;;18.33;7.30;;;;;;;1.78;100.00;101720.38;10112852;29;20045;-73
2020/12/25 08:02:07;;;;;;;15.18;6.97;;;;;;;1.78;100.00;101720.38;10126970;29;20092;-73
2020/12/25 08:07:09;;;;;;;10.23;4.47;;;;;;;1.83;100.00;101718.72;10104995;29;20043;-73
2020/12/25 08:12:12;;;;;;;19.40;10.70;;;;;;;1.79;100.00;101712.59;10118214;29;20056;-73
2020/12/25 08:17:14;;;;;;;10.82;5.20;;;;;;;1.71;100.00;101709.06;10135260;29;20041;-73
2020/12/25 08:22:15;;;;;;;13.93;10.57;;;;;;;1.65;100.00;101703.81;10120980;29;20072;-73
2020/12/25 08:27:17;;;;;;;16.30;8.88;;;;;;;2.02;100.00;101725.78;10132966;29;20040;-73
2020/12/25 08:32:18;;;;;;;15.38;9.75;;;;;;;2.75;100.00;101738.47;10131308;29;20504;-73
2020/12/25 08:37:22;;;;;;;10.40;5.35;;;;;;;2.21;100.00;101703.44;10131500;29;20060;-73
2020/12/25 08:42:23;;;;;;;11.20;3.88;;;;;;;4.12;100.00;101753.66;10132635;29;20045;-73
2020/12/25 08:47:24;;;;;;;4.97;2.58;;;;;;;5.24;100.00;101770.91;10123144;29;20105;-73
2020/12/25 08:52:25;;;;;;;8.55;2.97;;;;;;;4.58;100.00;101733.66;10104931;29;20048;-74
2020/12/25 08:57:29;;;;;;;10.68;3.67;;;;;;;3.66;100.00;101726.69;10132229;29;20701;-73
2020/12/25 09:02:30;;;;;;;9.90;2.88;;;;;;;3.60;100.00;101716.22;10119220;29;20394;-73
2020/12/25 09:07:31;;;;;;;36.80;24.48;;;;;;;3.49;100.00;101702.31;10132265;29;20493;-73
2020/12/25 09:12:32;;;;;;;9.07;4.85;;;;;;;3.44;100.00;101691.88;10119081;29;20049;-73
2020/12/25 09:17:34;;;;;;;10.30;5.80;;;;;;;5.69;100.00;101748.88;10133991;29;20040;-73
2020/12/25 09:22:35;;;;;;;8.20;4.55;;;;;;;6.43;100.00;101684.69;10119660;29;20053;-73
2020/12/25 09:27:36;;;;;;;10.38;4.78;;;;;;;7.46;100.00;101681.66;10118852;29;20045;-73
2020/12/25 09:32:37;;;;;;;10.77;4.75;;;;;;;7.95;100.00;101643.28;10133450;29;20060;-74
2020/12/25 09:37:39;;;;;;;9.48;5.15;;;;;;;7.42;95.96;101601.34;10131169;29;20059;-73
2020/12/25 09:42:40;;;;;;;13.02;3.58;;;;;;;6.83;100.00;101606.53;10116946;29;20502;-74
2020/12/25 09:47:41;;;;;;;7.55;3.90;;;;;;;8.85;96.10;101640.78;10121855;29;20048;-73
2020/12/25 09:52:42;;;;;;;5.57;2.40;;;;;;;8.91;90.24;101596.00;10130773;29;20065;-74
2020/12/25 09:57:43;;;;;;;5.82;2.42;;;;;;;5.85;100.00;101539.63;10131341;29;20048;-73
2020/12/25 10:02:45;;;;;;;7.25;2.03;;;;;;;5.28;100.00;101567.94;10132887;29;20044;-73
2020/12/25 10:07:46;;;;;;;7.25;2.90;;;;;;;5.15;100.00;101592.44;10139090;29;20056;-73
2020/12/25 10:12:49;;;;;;;8.38;3.75;;;;;;;4.79;100.00;101602.19;10137076;29;20045;-73
2020/12/25 10:17:55;;;;;;;26.00;12.68;;;;;;;4.72;100.00;101623.13;10119234;29;20064;-73
2020/12/25 10:22:56;;;;;;;7.47;3.05;;;;;;;4.83;100.00;101629.16;10131430;29;20049;-73
2020/12/25 10:27:58;;;;;;;7.85;3.08;;;;;;;4.46;100.00;101617.97;10123340;29;20072;-73
2020/12/25 10:32:59;;;;;;;8.40;2.50;;;;;;;4.38;100.00;101631.06;10105341;29;20558;-71
2020/12/25 10:38:00;;;;;;;3.90;1.88;;;;;;;4.58;100.00;101651.88;10136765;29;20044;-71
2020/12/25 10:43:03;;;;;;;7.10;2.45;;;;;;;4.33;100.00;101648.47;10113409;29;20041;-71
2020/12/25 10:48:04;;;;;;;7.10;2.67;;;;;;;4.47;100.00;101646.69;10120696;29;20576;-71
2020/12/25 10:53:05;;;;;;;9.10;2.50;;;;;;;4.45;100.00;101637.97;10135723;29;20048;-71
2020/12/25 10:58:06;;;;;;;8.45;2.65;;;;;;;4.82;100.00;101669.19;10137413;29;20044;-71
2020/12/25 11:03:07;;;;;;;6.40;2.28;;;;;;;6.12;100.00;101698.03;10137983;29;20378;-71
2020/12/25 11:08:09;;;;;;;10.45;2.42;;;;;;;8.97;100.00;101699.22;10137603;29;20490;-71
2020/12/25 11:13:21;;;;;;;9.77;3.15;;;;;;;9.21;94.82;101618.97;10136171;29;20052;-71
2020/12/25 11:18:22;;;;;;;8.60;2.63;;;;;;;8.46;91.72;101566.28;10137333;29;20045;-71
2020/12/25 11:23:23;;;;;;;8.73;2.35;;;;;;;8.43;93.44;101561.97;10134881;29;20532;-71
2020/12/25 11:28:25;;;;;;;5.32;1.92;;;;;;;7.38;100.00;101540.22;10120978;29;20052;-71
2020/12/25 11:33:26;;;;;;;6.60;2.42;;;;;;;8.28;100.00;101601.63;10135791;29;20066;-71
2020/12/25 11:38:27;;;;;;;7.75;2.40;;;;;;;11.77;82.42;101625.97;10132580;29;20392;-71
2020/12/25 11:43:41;;;;;;;13.30;6.10;;;;;;;7.00;95.77;101492.81;10120581;29;20448;-71
2020/12/25 11:48:44;;;;;;;9.27;2.97;;;;;;;6.40;100.00;101498.00;10135893;29;20071;-71
2020/12/25 11:53:48;;;;;;;8.27;3.20;;;;;;;6.12;100.00;101514.91;10136013;29;20041;-70
2020/12/25 11:58:49;;;;;;;8.30;2.83;;;;;;;5.74;100.00;101524.03;10132013;29;20049;-71
2020/12/25 12:03:51;;;;;;;9.35;2.60;;;;;;;5.37;100.00;101520.00;10135268;29;20056;-71
2020/12/25 12:08:53;;;;;;;7.47;2.58;;;;;;;5.50;100.00;101543.41;10135841;29;20056;-71
2020/12/25 12:14:01;;;;;;;6.20;2.40;;;;;;;5.95;100.00;101555.19;10135351;29;20052;-71
2020/12/25 12:19:02;;;;;;;7.47;2.50;;;;;;;5.61;100.00;101551.13;10136257;29;20052;-71
2020/12/25 12:24:03;;;;;;;5.22;2.35;;;;;;;5.51;100.00;101547.75;10135139;29;20501;-71
2020/12/25 12:29:05;;;;;;;15.85;6.03;;;;;;;5.45;100.00;101546.91;10134763;29;20044;-71
2020/12/25 12:34:06;;;;;;;5.10;2.60;;;;;;;5.20;100.00;101538.41;10134721;29;20108;-71
2020/12/25 12:39:07;;;;;;;10.38;4.00;;;;;;;5.23;100.00;101561.91;10117823;29;20462;-71
2020/12/25 12:44:20;;;;;;;7.93;2.70;;;;;;;4.89;100.00;101543.84;10126567;29;20045;-71
2020/12/25 12:49:22;;;;;;;5.97;2.65;;;;;;;5.01;100.00;101566.41;10134198;29;20049;-71
2020/12/25 12:54:23;;;;;;;9.65;2.88;;;;;;;5.33;100.00;101579.25;10117853;29;20048;-71
2020/12/25 12:59:24;;;;;;;5.60;2.30;;;;;;;5.55;100.00;101577.34;10134542;29;20061;-71
2020/12/25 13:04:25;;;;;;;8.75;3.13;;;;;;;5.38;100.00;101555.69;10130679;29;20081;-72
2020/12/25 13:09:26;;;;;;;10.43;3.92;;;;;;;5.11;100.00;101546.31;10129135;29;20044;-72
2020/12/25 13:14:39;;;;;;;10.52;4.03;;;;;;;5.25;100.00;101558.41;10132841;29;20083;-71
2020/12/25 13:19:40;;;;;;;7.28;2.67;;;;;;;5.06;100.00;101555.94;10128794;29;20766;-71
2020/12/25 13:24:42;;;;;;;7.13;2.30;;;;;;;4.94;100.00;101556.84;10132546;29;20060;-71
2020/12/25 13:29:43;;;;;;;8.05;3.15;;;;;;;6.19;100.00;101603.81;10133028;29;20059;-71
2020/12/25 13:34:44;;;;;;;7.05;2.95;;;;;;;5.42;100.00;101536.50;10104773;29;20101;-71
2020/12/25 13:39:45;;;;;;;11.77;3.50;;;;;;;5.72;100.00;101542.31;10123584;29;20044;-71
2020/12/25 13:45:01;;;;;;;;;;;;;;;6.94;100.00;101547.91;10141668;29;20602;-71
2020/12/25 13:50:03;;;;;;;13.23;3.13;;;;;;;5.39;100.00;101498.19;10141375;29;19923;-71
2020/12/25 13:55:04;;;;;;;27.42;15.63;;;;;;;4.87;100.00;101487.28;10140999;29;20048;-70
2020/12/25 14:00:05;;;;;;;9.00;2.30;;;;;;;4.55;100.00;101500.53;10139591;29;20040;-71
2020/12/25 14:05:11;;;;;;;7.55;2.28;;;;;;;4.63;100.00;101524.84;10140349;29;20139;-71
2020/12/25 14:10:13;;;;;;;7.95;2.08;;;;;;;4.88;100.00;101536.00;10139996;29;20049;-74
2020/12/25 14:15:21;;;;;;;8.32;2.45;;;;;;;5.00;100.00;101546.41;10117469;29;20057;-71
2020/12/25 14:20:23;;;;;;;7.03;2.60;;;;;;;4.87;100.00;101547.34;10120842;29;20408;-72
2020/12/25 14:25:24;;;;;;;10.93;6.05;;;;;;;4.49;100.00;101545.81;10140588;29;20045;-71
2020/12/25 14:30:25;;;;;;;9.10;4.07;;;;;;;4.51;100.00;101551.00;10121803;29;20481;-71
2020/12/25 14:35:33;;;;;;;8.38;4.38;;;;;;;4.48;100.00;101558.84;10138293;29;20089;-71
2020/12/25 14:40:35;;;;;;;11.77;3.78;;;;;;;4.57;100.00;101570.13;10140088;29;20497;-71
2020/12/25 14:45:41;;;;;;;11.68;4.35;;;;;;;4.37;100.00;101553.66;10139733;29;20417;-71
2020/12/25 14:50:42;;;;;;;13.95;6.57;;;;;;;4.37;100.00;101550.19;10138194;29;20055;-71
2020/12/25 14:55:43;;;;;;;5.53;2.97;;;;;;;4.23;100.00;101551.97;10122825;29;20044;-71
2020/12/25 15:00:44;;;;;;;7.45;2.95;;;;;;;3.96;100.00;101553.78;10139518;29;20096;-71
2020/12/25 15:05:46;;;;;;;7.35;2.40;;;;;;;3.81;100.00;101564.25;10109909;29;20508;-70
2020/12/25 15:10:47;;;;;;;4.82;2.53;;;;;;;3.83;100.00;101579.88;10137983;29;20048;-71
2020/12/25 15:15:58;;;;;;;4.70;2.28;;;;;;;3.79;100.00;101592.91;10138746;29;20076;-73
2020/12/25 15:20:59;;;;;;;8.75;2.60;;;;;;;3.73;100.00;101599.88;10136722;29;20044;-72
2020/12/25 15:26:01;;;;;;;6.90;2.58;;;;;;;3.73;100.00;101620.72;10120523;29;20067;-71
2020/12/25 15:31:08;;;;;;;4.60;2.50;;;;;;;3.44;100.00;101618.94;10136332;29;20047;-71
2020/12/25 15:36:19;;;;;;;5.47;2.83;;;;;;;3.32;100.00;101629.38;10112573;29;20086;-72
2020/12/25 15:41:20;;;;;;;7.25;2.75;;;;;;;2.90;100.00;101626.66;10134673;29;20049;-71
2020/12/25 15:46:21;;;;;;;10.20;4.38;;;;;;;2.74;100.00;101627.47;10136865;29;20052;-72
2020/12/25 15:51:24;;;;;;;7.65;2.67;;;;;;;2.56;100.00;101644.72;10120681;29;20052;-72
2020/12/25 15:56:25;;;;;;;7.40;2.42;;;;;;;2.54;100.00;101666.38;10098147;29;20045;-72
2020/12/25 16:01:31;;;;;;;6.95;2.78;;;;;;;2.34;100.00;101674.06;10127658;29;20044;-72
2020/12/25 16:06:34;;;;;;;6.22;2.70;;;;;;;2.34;100.00;101681.00;10136976;29;20104;-72
2020/12/25 16:11:36;;;;;;;6.60;3.10;;;;;;;2.32;100.00;101688.78;10137389;29;20127;-72
2020/12/25 16:16:40;;;;;;;7.07;3.05;;;;;;;2.13;100.00;101694.69;10135335;29;20060;-72
2020/12/25 16:21:45;;;;;;;12.82;5.30;;;;;;;2.05;100.00;101696.38;10135995;29;20052;-71
2020/12/25 16:26:46;;;;;;;9.02;3.72;;;;;;;1.95;100.00;101694.56;10136911;29;20474;-71
2020/12/25 16:31:48;;;;;;;5.93;3.40;;;;;;;1.77;100.00;101698.72;10136400;29;20498;-72
2020/12/25 16:36:52;;;;;;;11.68;4.68;;;;;;;1.83;100.00;101714.41;10135064;29;20049;-72
2020/12/25 16:41:54;;;;;;;8.80;3.58;;;;;;;1.84;100.00;101721.31;10135856;29;20076;-72
2020/12/25 16:47:00;;;;;;;7.47;3.90;;;;;;;1.87;100.00;101729.13;10135801;29;20135;-72
2020/12/25 16:52:01;;;;;;;11.05;4.13;;;;;;;1.81;100.00;101730.81;10135775;29;20041;-72
2020/12/25 16:57:05;;;;;;;9.90;4.15;;;;;;;1.85;100.00;101735.16;10135362;29;20033;-72
2020/12/25 17:02:07;;;;;;;8.75;3.88;;;;;;;1.72;100.00;101713.41;10132800;29;20052;-71
2020/12/25 17:07:08;;;;;;;9.95;5.10;;;;;;;1.78;100.00;101742.03;10120373;29;20056;-72
2020/12/25 17:12:12;;;;;;;8.18;4.82;;;;;;;1.81;100.00;101730.81;10136759;29;20040;-71
2020/12/25 17:17:18;;;;;;;34.33;19.27;;;;;;;1.73;100.00;101743.72;10143187;29;20113;-72
2020/12/25 17:22:21;;;;;;;30.75;15.80;;;;;;;1.70;100.00;101740.22;10122628;29;20413;-72
2020/12/25 17:27:22;;;;;;;20.35;11.57;;;;;;;1.51;100.00;101740.03;10119618;29;20087;-72
2020/12/25 17:32:25;;;;;;;14.82;7.88;;;;;;;1.30;100.00;101725.94;10143938;29;20063;-72
2020/12/25 17:37:26;;;;;;;11.02;4.85;;;;;;;1.14;100.00;101710.19;10147661;29;20458;-72
2020/12/25 17:42:45;;;;;;;12.30;4.43;;;;;;;1.32;100.00;101721.66;10142096;29;20409;-71
2020/12/25 17:47:46;;;;;;;8.90;4.45;;;;;;;1.43;100.00;101712.22;10142085;29;20040;-71
2020/12/25 17:52:47;;;;;;;7.88;4.28;;;;;;;1.47;100.00;101733.06;10141912;29;20048;-71
2020/12/25 17:57:49;;;;;;;9.48;4.90;;;;;;;1.55;100.00;101737.47;10142207;29;20486;-72
2020/12/25 18:02:50;;;;;;;12.35;5.93;;;;;;;1.63;100.00;101736.69;10142038;29;20428;-72
2020/12/25 18:07:52;;;;;;;21.33;11.77;;;;;;;1.73;100.00;101750.66;10141194;29;20059;-72
2020/12/25 18:12:53;;;;;;;16.33;8.55;;;;;;;1.56;100.00;101744.41;10140277;29;20386;-72
2020/12/25 18:17:54;;;;;;;13.05;7.43;;;;;;;1.58;100.00;101756.56;10140983;29;20088;-72
2020/12/25 18:22:55;;;;;;;9.65;5.60;;;;;;;1.54;100.00;101757.38;10139929;29;20040;-71
2020/12/25 18:27:56;;;;;;;14.60;8.15;;;;;;;1.56;100.00;101770.38;10139936;29;20525;-72
2020/12/25 18:32:57;;;;;;;19.50;9.07;;;;;;;1.53;100.00;101766.00;10140445;29;20048;-72
2020/12/25 18:37:58;;;;;;;13.27;6.78;;;;;;;1.46;100.00;101759.88;10140008;29;20438;-72
2020/12/25 18:42:59;;;;;;;13.50;7.22;;;;;;;1.39;100.00;101763.25;10140538;29;20096;-72
2020/12/25 18:48:12;;;;;;;9.35;5.93;;;;;;;1.23;100.00;101763.94;10140283;29;20378;-71
2020/12/25 18:53:14;;;;;;;13.45;5.70;;;;;;;1.14;100.00;101767.28;10140211;29;20108;-72
2020/12/25 18:58:16;;;;;;;10.55;5.78;;;;;;;1.22;100.00;101775.16;10140442;29;20390;-72
2020/12/25 19:03:17;;;;;;;9.95;5.25;;;;;;;1.32;100.00;101784.81;10139327;29;20044;-72
2020/12/25 19:08:18;;;;;;;10.43;4.90;;;;;;;1.43;100.00;101790.13;10139120;29;20048;-72
2020/12/25 19:13:20;;;;;;;14.40;7.43;;;;;;;1.54;100.00;101793.72;10139688;29;20461;-72
2020/12/25 19:18:34;;;;;;;19.20;7.40;;;;;;;1.65;100.00;101794.72;10138583;29;20059;-71
2020/12/25 19:23:35;;;;;;;17.73;7.28;;;;;;;1.72;100.00;101791.34;10138002;29;20494;-72
2020/12/25 19:28:36;;;;;;;8.10;4.63;;;;;;;1.77;100.00;101793.97;10165576;29;20044;-72
2020/12/25 19:33:40;;;;;;;12.82;5.90;;;;;;;1.95;100.00;101786.38;10160987;29;20489;-71
2020/12/25 19:38:45;;;;;;;13.88;5.03;;;;;;;2.10;100.00;101799.50;10158446;29;20056;-72
2020/12/25 19:43:49;;;;;;;8.82;4.93;;;;;;;2.15;100.00;101802.16;10136958;29;20069;-72
2020/12/25 19:48:50;;;;;;;11.32;5.28;;;;;;;2.04;100.00;101790.78;10137210;29;20044;-72
2020/12/25 19:53:57;;;;;;;11.18;4.78;;;;;;;2.50;100.00;101834.56;10137036;29;20048;-72
2020/12/25 19:58:58;;;;;;;16.70;5.32;;;;;;;2.30;100.00;101820.50;10099635;29;20410;-72
2020/12/25 20:04:01;;;;;;;10.93;5.30;;;;;;;2.27;100.00;101821.34;10099394;29;20057;-72
2020/12/25 20:09:03;;;;;;;8.88;4.10;;;;;;;2.28;100.00;101824.81;10123412;29;20048;-72
2020/12/25 20:14:05;;;;;;;13.35;6.60;;;;;;;2.32;100.00;101837.00;10133346;29;20045;-72
2020/12/25 20:19:11;;;;;;;9.63;4.57;;;;;;;2.33;100.00;101853.47;10136965;29;20055;-71
2020/12/25 20:24:13;;;;;;;12.65;4.60;;;;;;;2.24;100.00;101834.31;10135526;29;20131;-72
2020/12/25 20:29:15;;;;;;;10.40;4.97;;;;;;;2.32;100.00;101847.41;10136725;29;20040;-72
2020/12/25 20:34:16;;;;;;;12.75;4.57;;;;;;;2.36;100.00;101851.75;10135876;29;20099;-72
2020/12/25 20:39:17;;;;;;;7.22;3.97;;;;;;;2.47;100.00;101849.25;10134925;29;20056;-72
2020/12/25 20:44:19;;;;;;;9.15;4.93;;;;;;;2.39;100.00;101849.19;10119762;29;20040;-72
2020/12/25 20:49:31;;;;;;;9.82;5.20;;;;;;;2.41;100.00;101844.00;10136337;29;20048;-72
2020/12/25 20:54:32;;;;;;;10.18;4.55;;;;;;;2.46;100.00;101855.31;10132835;29;20045;-72
2020/12/25 20:59:33;;;;;;;9.88;4.93;;;;;;;2.35;100.00;101841.31;10130923;29;20063;-72
2020/12/25 21:04:34;;;;;;;10.10;5.15;;;;;;;2.44;100.00;101852.69;10125219;29;20118;-72
2020/12/25 21:09:36;;;;;;;7.80;4.57;;;;;;;2.46;100.00;101847.50;10106923;29;20052;-71
2020/12/25 21:14:37;;;;;;;9.02;4.97;;;;;;;2.47;100.00;101844.91;10113197;29;20049;-71
2020/12/25 21:19:50;;;;;;;10.35;5.95;;;;;;;2.46;100.00;101829.31;10096950;29;20406;-71
2020/12/25 21:24:51;;;;;;;11.48;5.60;;;;;;;2.47;100.00;101833.66;10127642;29;20055;-72
2020/12/25 21:29:52;;;;;;;11.63;5.68;;;;;;;2.44;100.00;101813.69;10135845;29;20045;-72
2020/12/25 21:34:54;;;;;;;9.32;5.30;;;;;;;2.48;100.00;101806.78;10135141;29;20052;-71
2020/12/25 21:39:55;;;;;;;11.25;5.90;;;;;;;2.46;100.00;101808.50;10117681;29;20052;-72
2020/12/25 21:44:56;;;;;;;9.63;5.55;;;;;;;2.49;100.00;101801.59;10134411;29;20063;-72
2020/12/25 21:50:08;;;;;;;13.43;6.40;;;;;;;2.39;100.00;101798.91;10134932;29;20048;-72
2020/12/25 21:55:11;;;;;;;12.13;5.72;;;;;;;2.12;100.00;101779.59;10135645;29;20045;-72
2020/12/25 22:00:13;;;;;;;10.07;7.15;;;;;;;2.23;100.00;101784.91;10138929;29;20485;-72
2020/12/25 22:05:17;;;;;;;13.75;6.72;;;;;;;2.31;100.00;101784.97;10142573;29;20045;-72
2020/12/25 22:10:18;;;;;;;15.32;7.95;;;;;;;2.22;100.00;101796.16;10141005;29;20401;-72
2020/12/25 22:15:19;;;;;;;11.88;6.75;;;;;;;2.12;100.00;101787.41;10142171;29;20049;-72
2020/12/25 22:20:44;;;;;;;9.43;7.00;;;;;;;2.13;100.00;101796.06;10141966;29;20109;-72
2020/12/25 22:25:45;;;;;;;11.20;6.57;;;;;;;2.13;100.00;101786.56;10141214;29;20064;-72
2020/12/25 22:30:46;;;;;;;9.50;7.32;;;;;;;1.98;100.00;101781.22;10141501;29;20092;-71
2020/12/25 22:35:47;;;;;;;12.27;8.43;;;;;;;1.90;100.00;101788.06;10140532;29;20064;-72
2020/12/25 22:40:48;;;;;;;13.48;8.10;;;;;;;1.78;100.00;101781.00;10140678;29;20052;-72
2020/12/25 22:45:50;;;;;;;10.23;6.60;;;;;;;1.79;100.00;101787.94;10140380;29;20047;-72
2020/12/25 22:50:53;;;;;;;15.75;8.82;;;;;;;1.83;100.00;101796.66;10123729;29;20059;-71
2020/12/25 22:55:54;;;;;;;9.98;7.22;;;;;;;1.77;100.00;101788.78;10140586;29;20041;-72
2020/12/25 23:00:55;;;;;;;12.77;7.20;;;;;;;1.82;100.00;101800.09;10139471;29;20048;-71
2020/12/25 23:05:56;;;;;;;17.10;9.20;;;;;;;1.80;100.00;101804.41;10137366;29;20055;-72